createdAt,value
2022-12-12T00:01:04.699Z,14.18
2022-12-12T00:05:08.113Z,14.77
2022-12-12T00:09:10.358Z,14.63
2022-12-12T00:13:12.404Z,14.43
2022-12-12T00:17:14.430Z,15.63
2022-12-12T00:21:19.728Z,15.43
2022-12-12T00:25:21.997Z,15.68
2022-12-12T00:29:24.058Z,17.35
2022-12-12T00:33:26.337Z,16.25
2022-12-12T00:37:28.384Z,15.85
2022-12-12T00:41:30.485Z,16.38
2022-12-12T00:45:32.576Z,16.63
2022-12-12T00:49:35.039Z,16.80
2022-12-12T00:53:38.012Z,17.85
2022-12-12T00:57:40.049Z,17.85
2022-12-12T01:01:42.082Z,17.85
2022-12-12T01:05:44.410Z,17.38
2022-12-12T01:09:46.409Z,16.95
2022-12-12T01:13:50.485Z,16.25
2022-12-12T01:17:53.184Z,16.50
2022-12-12T01:21:55.627Z,16.58
2022-12-12T01:26:02.240Z,16.77
2022-12-12T01:30:05.855Z,16.13
2022-12-12T01:34:08.158Z,16.88
2022-12-12T01:38:10.176Z,17.55
2022-12-12T01:42:14.445Z,16.52
2022-12-12T01:46:33.411Z,17.52
2022-12-12T01:50:35.638Z,17.75
2022-12-12T01:54:45.234Z,17.67
2022-12-12T01:58:49.491Z,16.65
2022-12-12T02:02:53.707Z,16.48
2022-12-12T02:06:56.504Z,16.60
2022-12-12T02:10:58.826Z,15.77
2022-12-12T02:15:02.061Z,16.63
2022-12-12T02:19:52.292Z,15.85
2022-12-12T02:24:26.195Z,16.90
2022-12-12T02:29:01.620Z,16.45
2022-12-12T02:33:13.624Z,17.42
2022-12-12T02:37:26.461Z,16.13
2022-12-12T02:41:32.724Z,17.05
2022-12-12T02:45:56.602Z,17.70
2022-12-12T02:50:13.275Z,17.48
2022-12-12T02:54:18.351Z,18.55
2022-12-12T02:58:20.349Z,17.55
2022-12-12T03:02:37.632Z,17.42
2022-12-12T03:12:10.630Z,17.33
2022-12-12T03:16:32.560Z,18.80
2022-12-12T03:21:06.703Z,17.40
2022-12-12T03:25:36.689Z,16.98
2022-12-12T03:29:48.544Z,17.08
2022-12-12T03:33:56.993Z,16.48
2022-12-12T03:38:06.067Z,17.67
2022-12-12T03:42:35.780Z,16.40
2022-12-12T03:47:17.504Z,18.23
2022-12-12T03:51:29.105Z,18.98
2022-12-12T03:55:47.241Z,19.23
2022-12-12T03:59:54.327Z,19.73
2022-12-12T04:04:03.034Z,17.70
2022-12-12T04:08:11.408Z,18.58
2022-12-12T04:12:41.247Z,18.00
2022-12-12T04:16:46.755Z,18.23
2022-12-12T04:21:21.211Z,18.38
2022-12-12T04:26:03.663Z,18.08
2022-12-12T04:30:08.340Z,17.48
2022-12-12T04:34:19.364Z,18.38
2022-12-12T04:38:23.916Z,18.50
2022-12-12T04:42:29.319Z,18.27
2022-12-12T04:46:33.251Z,18.90
2022-12-12T04:50:37.187Z,19.48
2022-12-12T04:54:49.342Z,19.17
2022-12-12T04:58:51.571Z,19.50
2022-12-12T05:03:00.872Z,21.30
2022-12-12T05:07:09.141Z,19.67
2022-12-12T05:11:12.011Z,19.95
2022-12-12T05:15:16.481Z,17.88
2022-12-12T05:19:18.674Z,16.88
2022-12-12T05:23:20.689Z,17.27
2022-12-12T05:27:22.680Z,16.75
2022-12-12T05:31:24.672Z,16.10
2022-12-12T05:35:26.987Z,16.00
2022-12-12T05:39:28.957Z,14.80
2022-12-12T05:43:31.245Z,15.77
2022-12-12T05:47:33.506Z,14.73
2022-12-12T05:51:36.711Z,14.02
2022-12-12T05:55:38.761Z,14.43
2022-12-12T05:59:40.792Z,15.40
2022-12-12T06:03:42.822Z,16.52
2022-12-12T06:07:44.860Z,16.42
2022-12-12T06:11:46.895Z,16.58
2022-12-12T06:15:49.007Z,14.52
2022-12-12T06:19:52.377Z,14.70
2022-12-12T06:23:54.451Z,13.05
2022-12-12T06:27:57.383Z,13.50
2022-12-12T06:32:01.209Z,13.20
2022-12-12T06:36:13.900Z,13.82
2022-12-12T06:40:17.116Z,16.23
2022-12-12T06:44:19.161Z,15.07
2022-12-12T06:48:21.217Z,15.05
2022-12-12T06:52:23.224Z,14.50
2022-12-12T06:56:26.736Z,13.10
2022-12-12T07:00:28.739Z,15.32
2022-12-12T07:04:30.769Z,13.88
2022-12-12T07:08:34.633Z,13.57
2022-12-12T07:12:36.622Z,16.05
2022-12-12T07:16:39.179Z,17.20
2022-12-12T07:20:43.071Z,15.40
2022-12-12T07:24:45.054Z,14.68
2022-12-12T07:28:48.017Z,16.55
2022-12-12T07:32:51.866Z,15.00
2022-12-12T07:36:59.225Z,14.75
2022-12-12T07:41:07.536Z,12.85
2022-12-12T07:45:15.003Z,14.20
2022-12-12T07:49:20.019Z,17.85
2022-12-12T07:53:22.034Z,13.82
2022-12-12T07:57:24.031Z,13.38
2022-12-12T08:01:27.292Z,13.27
2022-12-12T08:05:29.302Z,13.45
2022-12-12T08:09:31.525Z,12.07
2022-12-12T08:13:36.071Z,14.25
2022-12-12T08:17:38.058Z,13.23
2022-12-12T08:21:40.048Z,14.27
2022-12-12T08:25:42.986Z,14.63
2022-12-12T08:29:45.044Z,15.38
2022-12-12T08:33:47.962Z,14.88
2022-12-12T08:37:50.930Z,14.32
2022-12-12T08:41:53.241Z,16.65
2022-12-12T08:46:02.946Z,18.02
2022-12-12T08:50:06.251Z,16.10
2022-12-12T08:54:09.935Z,17.35
2022-12-12T08:58:12.032Z,17.58
2022-12-12T09:02:14.594Z,16.40
2022-12-12T09:06:17.607Z,17.50
2022-12-12T09:10:19.986Z,16.77
2022-12-12T09:14:22.006Z,16.08
2022-12-12T09:18:24.400Z,16.60
2022-12-12T09:22:26.430Z,16.65
2022-12-12T09:26:28.452Z,17.67
2022-12-12T09:30:30.502Z,17.25
2022-12-12T09:34:33.772Z,16.50
2022-12-12T09:38:36.634Z,17.52
2022-12-12T09:42:46.270Z,18.45
2022-12-12T09:46:53.183Z,17.80
2022-12-12T09:50:55.252Z,19.33
2022-12-12T09:54:59.680Z,18.40
2022-12-12T09:59:18.984Z,17.58
2022-12-12T10:03:24.144Z,18.60
2022-12-12T10:07:42.814Z,17.73
2022-12-12T10:11:51.247Z,16.98
2022-12-12T10:16:03.043Z,17.60
2022-12-12T10:20:14.413Z,15.02
2022-12-12T10:24:33.119Z,15.60
2022-12-12T10:28:35.777Z,16.77
2022-12-12T10:32:53.363Z,20.48
2022-12-12T10:37:26.115Z,18.00
2022-12-12T10:41:42.234Z,18.42
2022-12-12T10:45:56.686Z,18.52
2022-12-12T10:50:20.574Z,16.17
2022-12-12T10:54:26.284Z,14.68
2022-12-12T10:58:37.487Z,15.82
2022-12-12T11:02:44.217Z,17.38
2022-12-12T11:06:50.666Z,16.85
2022-12-12T11:11:22.764Z,15.50
2022-12-12T11:15:32.001Z,14.95
2022-12-12T11:19:38.899Z,11.85
2022-12-12T11:23:50.327Z,14.35
2022-12-12T11:27:53.627Z,13.18
2022-12-12T11:31:56.876Z,11.30
2022-12-12T11:36:01.068Z,11.15
2022-12-12T11:40:07.419Z,12.00
2022-12-12T11:44:24.156Z,11.32
2022-12-12T11:48:48.433Z,11.00
2022-12-12T11:52:53.732Z,11.00
2022-12-12T11:57:02.082Z,12.95
2022-12-12T12:01:11.912Z,13.25
2022-12-12T12:05:25.911Z,12.60
2022-12-12T12:09:31.509Z,12.30
2022-12-12T12:14:15.193Z,12.65
2022-12-12T12:18:37.247Z,12.75
2022-12-12T12:22:51.635Z,12.00
2022-12-12T12:27:08.689Z,10.90
2022-12-12T12:31:25.919Z,12.93
2022-12-12T12:35:30.917Z,12.20
2022-12-12T12:39:59.396Z,10.32
2022-12-12T12:44:26.646Z,11.85
2022-12-12T12:48:34.666Z,12.23
2022-12-12T12:52:43.306Z,12.35
2022-12-12T12:57:04.191Z,11.82
2022-12-12T13:01:14.653Z,13.18
2022-12-12T13:05:24.318Z,14.25
2022-12-12T13:09:41.974Z,14.82
2022-12-12T13:13:47.800Z,16.45
2022-12-12T13:18:01.582Z,16.33
2022-12-12T13:22:24.401Z,16.63
2022-12-12T13:26:41.795Z,19.60
2022-12-12T13:30:55.683Z,17.10
2022-12-12T13:35:03.894Z,18.55
2022-12-12T13:39:09.039Z,19.60
2022-12-12T13:43:34.073Z,18.10
2022-12-12T13:47:36.060Z,18.23
2022-12-12T13:51:42.289Z,17.45
2022-12-12T13:55:44.462Z,18.48
2022-12-12T13:59:52.738Z,17.60
2022-12-12T14:03:55.016Z,18.27
2022-12-12T14:08:08.391Z,17.95
2022-12-12T14:12:29.150Z,19.35
2022-12-12T14:16:36.002Z,19.90
2022-12-12T14:21:00.223Z,19.65
2022-12-12T14:25:07.348Z,18.83
2022-12-12T14:29:15.399Z,17.85
2022-12-12T14:33:17.327Z,18.65
2022-12-12T14:37:28.356Z,16.52
2022-12-12T14:41:35.943Z,16.85
2022-12-12T14:45:51.280Z,16.63
2022-12-12T14:50:17.312Z,19.02
2022-12-12T14:54:21.693Z,17.25
2022-12-12T14:58:27.957Z,19.83
2022-12-12T15:02:35.283Z,15.93
2022-12-12T15:06:45.357Z,18.92
2022-12-12T15:10:59.464Z,18.30
2022-12-12T15:15:01.951Z,19.08
2022-12-12T15:19:04.173Z,20.40
2022-12-12T15:23:07.401Z,22.35
2022-12-12T15:27:19.819Z,22.63
2022-12-12T15:31:22.584Z,19.00
2022-12-12T15:35:25.039Z,18.65
2022-12-12T15:39:27.333Z,19.90
2022-12-12T15:43:31.010Z,19.13
2022-12-12T15:47:33.745Z,25.80
2022-12-12T15:51:35.789Z,29.08
2022-12-12T15:55:37.963Z,23.60
2022-12-12T15:59:40.647Z,20.17
2022-12-12T16:04:02.877Z,19.88
2022-12-12T16:08:36.294Z,19.17
2022-12-12T16:13:22.072Z,18.15
2022-12-12T16:17:25.600Z,17.85
2022-12-12T16:21:28.628Z,18.92
2022-12-12T16:25:33.995Z,17.55
2022-12-12T16:29:36.501Z,17.45
2022-12-12T16:33:40.219Z,16.33
2022-12-12T16:37:42.500Z,19.15
2022-12-12T16:41:44.671Z,18.88
2022-12-12T16:45:49.459Z,18.60
2022-12-12T16:49:51.980Z,35.90
2022-12-12T16:53:55.226Z,23.27
2022-12-12T16:57:57.238Z,21.33
2022-12-12T17:01:59.549Z,18.75
2022-12-12T17:06:01.947Z,17.58
2022-12-12T17:10:04.714Z,17.27
2022-12-12T17:14:06.773Z,17.98
2022-12-12T17:18:09.052Z,17.27
2022-12-12T17:22:11.129Z,19.70
2022-12-12T17:26:13.293Z,20.73
2022-12-12T17:30:16.269Z,23.88
2022-12-12T17:34:18.521Z,20.67
2022-12-12T17:38:20.541Z,21.00
2022-12-12T17:42:22.709Z,20.50
2022-12-12T17:46:27.695Z,19.10
2022-12-12T17:50:29.739Z,20.52
2022-12-12T17:54:32.346Z,62.95
2022-12-12T17:58:36.497Z,21.35
2022-12-12T18:02:39.848Z,15.68
2022-12-12T18:06:41.834Z,20.40
2022-12-12T18:10:43.838Z,16.10
2022-12-12T18:14:46.136Z,19.35
2022-12-12T18:18:50.382Z,22.63
2022-12-12T18:22:55.045Z,19.02
2022-12-12T18:26:59.172Z,15.60
2022-12-12T18:31:02.502Z,14.00
2022-12-12T18:35:05.006Z,15.10
2022-12-12T18:39:07.371Z,17.63
2022-12-12T18:43:09.437Z,23.25
2022-12-12T18:47:11.853Z,27.85
2022-12-12T18:51:15.869Z,23.55
2022-12-12T18:55:18.090Z,20.35
2022-12-12T18:59:20.096Z,28.77
2022-12-12T19:03:22.174Z,41.08
2022-12-12T19:07:24.275Z,38.22
2022-12-12T19:11:26.250Z,25.58
2022-12-12T19:15:28.482Z,20.88
2022-12-12T19:19:30.963Z,19.30
2022-12-12T19:23:33.564Z,21.00
2022-12-12T19:27:35.595Z,18.77
2022-12-12T19:31:37.684Z,19.33
2022-12-12T19:35:39.773Z,18.40
2022-12-12T19:39:41.952Z,17.25
2022-12-12T19:43:45.760Z,17.40
2022-12-12T19:47:47.818Z,17.02
2022-12-12T19:51:49.850Z,16.42
2022-12-12T19:55:52.081Z,16.17
2022-12-12T19:59:54.204Z,14.63
2022-12-12T20:04:01.136Z,14.82
2022-12-12T20:12:05.527Z,13.98
2022-12-12T20:16:10.895Z,14.82
2022-12-12T20:20:13.200Z,16.90
2022-12-12T20:24:17.393Z,27.55
2022-12-12T20:28:19.435Z,30.98
2022-12-12T20:32:21.481Z,29.63
2022-12-12T20:36:31.336Z,33.50
2022-12-12T20:40:39.247Z,31.10
2022-12-12T20:44:41.302Z,28.38
2022-12-12T20:48:43.940Z,29.77
2022-12-12T20:52:46.019Z,28.70
2022-12-12T20:56:50.868Z,18.60
2022-12-12T21:00:52.884Z,20.55
2022-12-12T21:04:54.917Z,20.95
2022-12-12T21:09:00.487Z,20.92
2022-12-12T21:13:02.639Z,23.85
2022-12-12T21:17:05.002Z,22.48
2022-12-12T21:21:10.865Z,22.20
2022-12-12T21:25:13.186Z,21.95
2022-12-12T21:29:16.209Z,22.13
2022-12-12T21:33:18.253Z,24.23
2022-12-12T21:37:20.317Z,20.52
2022-12-12T21:41:23.135Z,23.10
2022-12-12T21:45:25.197Z,22.67
2022-12-12T21:49:27.713Z,18.05
2022-12-12T21:53:36.014Z,19.20
2022-12-12T21:57:38.081Z,22.45
2022-12-12T22:01:40.908Z,22.63
2022-12-12T22:05:43.137Z,21.20
2022-12-12T22:09:45.191Z,21.90
2022-12-12T22:14:08.318Z,20.80
2022-12-12T22:18:10.359Z,21.58
2022-12-12T22:22:13.470Z,21.83
2022-12-12T22:26:27.681Z,19.00
2022-12-12T22:30:29.673Z,20.17
2022-12-12T22:34:31.698Z,19.77
2022-12-12T22:38:38.016Z,19.80
2022-12-12T22:42:40.535Z,22.13
2022-12-12T22:46:47.609Z,19.23
2022-12-12T22:50:49.714Z,18.45
2022-12-12T22:54:51.866Z,16.48
2022-12-12T22:58:54.257Z,18.30
2022-12-12T23:02:56.241Z,19.77
2022-12-12T23:06:58.251Z,19.45
2022-12-12T23:11:13.150Z,17.73
2022-12-12T23:15:15.830Z,18.52
2022-12-12T23:19:21.118Z,19.80
2022-12-12T23:23:23.162Z,19.08
2022-12-12T23:27:25.264Z,17.33
2022-12-12T23:31:30.221Z,18.23
2022-12-12T23:35:32.334Z,16.00
2022-12-12T23:39:34.382Z,15.80
2022-12-12T23:43:36.803Z,18.08
2022-12-12T23:47:38.843Z,17.95
2022-12-12T23:51:50.017Z,16.00
2022-12-12T23:55:52.069Z,16.60
2022-12-12T23:59:54.050Z,15.80
